createdAt,value
2023-02-09T00:01:28.111Z,8.65
2023-02-09T00:03:55.765Z,10.00
2023-02-09T00:06:24.299Z,8.75
2023-02-09T00:08:51.841Z,6.20
2023-02-09T00:11:47.230Z,9.88
2023-02-09T00:16:43.842Z,7.88
2023-02-09T00:19:12.488Z,8.40
2023-02-09T00:21:40.702Z,8.57
2023-02-09T00:24:10.718Z,8.30
2023-02-09T00:26:38.404Z,7.95
2023-02-09T00:29:06.269Z,8.02
2023-02-09T00:31:34.421Z,7.88
2023-02-09T00:34:02.688Z,6.15
2023-02-09T00:36:31.035Z,6.68
2023-02-09T00:38:58.975Z,7.43
2023-02-09T00:41:44.940Z,7.15
2023-02-09T00:44:12.840Z,7.80
2023-02-09T00:46:40.155Z,6.88
2023-02-09T00:49:07.575Z,6.22
2023-02-09T00:51:34.974Z,7.00
2023-02-09T00:54:02.402Z,8.40
2023-02-09T00:56:29.677Z,6.75
2023-02-09T00:58:56.962Z,6.18
2023-02-09T01:01:24.268Z,7.43
2023-02-09T01:03:51.589Z,7.65
2023-02-09T01:06:18.894Z,6.40
2023-02-09T01:08:46.153Z,8.68
2023-02-09T01:11:15.755Z,5.90
2023-02-09T01:13:43.990Z,8.07
2023-02-09T01:16:16.001Z,6.20
2023-02-09T01:18:43.804Z,6.15
2023-02-09T01:21:21.722Z,6.20
2023-02-09T01:23:49.188Z,6.50
2023-02-09T01:26:17.888Z,6.28
2023-02-09T01:28:50.343Z,6.40
2023-02-09T01:31:25.459Z,6.13
2023-02-09T01:33:54.942Z,6.15
2023-02-09T01:36:22.760Z,7.63
2023-02-09T01:38:50.679Z,7.28
2023-02-09T01:41:18.347Z,6.43
2023-02-09T01:43:58.254Z,7.45
2023-02-09T01:46:28.383Z,7.28
2023-02-09T01:49:09.299Z,7.47
2023-02-09T01:51:48.778Z,6.93
2023-02-09T01:54:23.166Z,7.00
2023-02-09T01:56:57.435Z,7.30
2023-02-09T01:59:25.695Z,6.47
2023-02-09T02:01:53.897Z,7.85
2023-02-09T02:04:22.015Z,7.45
2023-02-09T02:06:49.467Z,5.80
2023-02-09T02:09:18.763Z,6.65
2023-02-09T02:11:48.820Z,6.65
2023-02-09T02:14:28.574Z,6.13
2023-02-09T02:17:11.398Z,5.90
2023-02-09T02:19:59.814Z,7.45
2023-02-09T02:22:54.512Z,5.47
2023-02-09T02:25:30.511Z,7.07
2023-02-09T02:28:31.977Z,6.70
2023-02-09T02:31:24.002Z,5.25
2023-02-09T02:34:06.800Z,5.82
2023-02-09T02:37:01.470Z,6.85
2023-02-09T02:39:40.272Z,5.25
2023-02-09T02:42:51.696Z,6.28
2023-02-09T02:45:48.714Z,5.50
2023-02-09T02:48:38.578Z,6.32
2023-02-09T02:51:31.712Z,5.88
2023-02-09T02:54:04.538Z,5.75
2023-02-09T02:56:40.311Z,6.57
2023-02-09T02:59:12.657Z,6.72
2023-02-09T03:01:46.301Z,7.32
2023-02-09T03:04:15.977Z,6.60
2023-02-09T03:06:43.295Z,6.15
2023-02-09T03:09:11.303Z,6.18
2023-02-09T03:11:44.192Z,6.63
2023-02-09T03:14:20.315Z,6.80
2023-02-09T03:17:13.843Z,6.75
2023-02-09T03:20:08.524Z,6.32
2023-02-09T03:22:56.307Z,7.03
2023-02-09T03:25:37.506Z,7.32
2023-02-09T03:28:12.886Z,8.07
2023-02-09T03:30:42.382Z,5.85
2023-02-09T03:33:21.056Z,6.30
2023-02-09T03:35:52.226Z,7.15
2023-02-09T03:38:19.460Z,6.43
2023-02-09T03:40:47.080Z,5.88
2023-02-09T03:43:14.527Z,8.80
2023-02-09T03:45:42.010Z,6.00
2023-02-09T03:48:09.546Z,7.10
2023-02-09T03:50:37.896Z,6.47
2023-02-09T03:53:08.493Z,7.28
2023-02-09T03:55:37.153Z,7.22
2023-02-09T03:58:04.537Z,6.63
2023-02-09T04:00:31.824Z,5.80
2023-02-09T04:02:59.355Z,6.85
2023-02-09T04:05:26.659Z,8.48
2023-02-09T04:07:53.886Z,6.65
2023-02-09T04:10:21.156Z,6.50
2023-02-09T04:12:48.406Z,6.95
2023-02-09T04:15:15.690Z,7.00
2023-02-09T04:17:42.961Z,8.00
2023-02-09T04:20:10.558Z,6.63
2023-02-09T04:22:37.879Z,7.03
2023-02-09T04:25:05.463Z,6.57
2023-02-09T04:27:32.764Z,7.63
2023-02-09T04:30:00.027Z,6.18
2023-02-09T04:32:27.303Z,6.72
2023-02-09T04:34:54.533Z,7.40
2023-02-09T04:37:21.864Z,6.68
2023-02-09T04:39:49.170Z,6.35
2023-02-09T04:42:16.389Z,7.30
2023-02-09T04:44:43.616Z,6.60
2023-02-09T04:47:10.854Z,5.65
2023-02-09T04:49:38.070Z,6.82
2023-02-09T04:52:05.408Z,5.93
2023-02-09T04:54:32.614Z,5.72
2023-02-09T04:57:18.557Z,5.90
2023-02-09T04:59:46.181Z,6.45
2023-02-09T05:02:13.448Z,5.57
2023-02-09T05:04:40.729Z,6.05
2023-02-09T05:07:08.044Z,6.38
2023-02-09T05:09:35.275Z,5.35
2023-02-09T05:12:02.686Z,5.63
2023-02-09T05:14:29.928Z,5.70
2023-02-09T05:16:57.400Z,5.25
2023-02-09T05:19:24.711Z,5.97
2023-02-09T05:21:51.952Z,5.20
2023-02-09T05:24:19.215Z,5.38
2023-02-09T05:26:46.493Z,5.28
2023-02-09T05:29:13.811Z,6.18
2023-02-09T05:31:41.195Z,5.95
2023-02-09T05:34:08.541Z,5.38
2023-02-09T05:36:35.811Z,5.80
2023-02-09T05:39:03.166Z,5.93
2023-02-09T05:41:48.996Z,5.95
2023-02-09T05:44:16.246Z,6.60
2023-02-09T05:46:43.516Z,6.70
2023-02-09T05:49:10.850Z,6.10
2023-02-09T05:51:38.090Z,6.30
2023-02-09T05:54:05.507Z,6.43
2023-02-09T05:56:32.861Z,6.47
2023-02-09T05:59:00.163Z,5.88
2023-02-09T06:01:27.482Z,6.88
2023-02-09T06:03:54.796Z,6.60
2023-02-09T06:06:22.091Z,7.95
2023-02-09T06:08:49.366Z,6.15
2023-02-09T06:11:16.615Z,7.82
2023-02-09T06:13:43.883Z,5.97
2023-02-09T06:16:11.240Z,9.70
2023-02-09T06:18:38.774Z,15.23
2023-02-09T06:21:06.317Z,7.15
2023-02-09T06:23:35.298Z,10.63
2023-02-09T06:26:10.524Z,15.50
2023-02-09T06:28:38.634Z,7.00
2023-02-09T06:31:07.050Z,9.90
2023-02-09T06:33:35.794Z,9.63
2023-02-09T06:36:04.240Z,8.90
2023-02-09T06:38:36.266Z,6.22
2023-02-09T06:41:04.062Z,7.18
2023-02-09T06:43:31.515Z,7.80
2023-02-09T06:45:58.844Z,9.50
2023-02-09T06:48:26.085Z,8.65
2023-02-09T06:50:53.516Z,10.45
2023-02-09T06:53:20.825Z,8.13
2023-02-09T06:55:48.057Z,7.75
2023-02-09T06:58:15.329Z,11.65
2023-02-09T07:00:42.628Z,10.20
2023-02-09T07:03:11.053Z,10.15
2023-02-09T07:05:38.329Z,8.10
2023-02-09T07:08:05.756Z,11.55
2023-02-09T07:10:33.169Z,10.13
2023-02-09T07:13:00.411Z,12.00
2023-02-09T07:15:27.647Z,11.50
2023-02-09T07:17:54.897Z,15.68
2023-02-09T07:20:22.176Z,12.40
2023-02-09T07:22:49.673Z,13.05
2023-02-09T07:25:17.056Z,14.35
2023-02-09T07:27:44.800Z,11.23
2023-02-09T07:30:12.920Z,10.45
2023-02-09T07:32:40.406Z,16.55
2023-02-09T07:35:07.807Z,11.77
2023-02-09T07:37:37.801Z,14.63
2023-02-09T07:40:05.495Z,13.90
2023-02-09T07:42:32.760Z,12.35
2023-02-09T07:44:59.989Z,15.07
2023-02-09T07:47:27.272Z,12.00
2023-02-09T07:49:54.509Z,11.48
2023-02-09T07:52:22.071Z,19.58
2023-02-09T07:54:51.752Z,14.07
2023-02-09T07:57:19.042Z,15.50
2023-02-09T07:59:46.351Z,9.70
2023-02-09T08:02:24.880Z,11.52
2023-02-09T08:05:01.103Z,10.48
2023-02-09T08:07:28.786Z,8.93
2023-02-09T08:09:56.078Z,11.63
2023-02-09T08:12:48.152Z,9.85
2023-02-09T08:15:17.797Z,15.70
2023-02-09T08:17:45.188Z,16.20
2023-02-09T08:20:17.227Z,14.20
2023-02-09T08:22:50.265Z,12.90
2023-02-09T08:25:20.202Z,10.48
2023-02-09T08:27:48.072Z,11.10
2023-02-09T08:30:17.279Z,15.00
2023-02-09T08:32:44.538Z,18.27
2023-02-09T08:35:12.452Z,14.98
2023-02-09T08:37:39.766Z,30.40
2023-02-09T08:40:07.447Z,17.23
2023-02-09T08:42:34.754Z,16.58
2023-02-09T08:45:02.272Z,23.58
2023-02-09T08:47:29.517Z,23.48
2023-02-09T08:49:58.039Z,18.33
2023-02-09T08:52:25.682Z,16.75
2023-02-09T08:54:52.919Z,16.88
2023-02-09T08:57:20.208Z,19.70
2023-02-09T08:59:47.579Z,18.73
2023-02-09T09:02:14.918Z,20.30
2023-02-09T09:04:42.247Z,20.75
2023-02-09T09:07:09.987Z,22.17
2023-02-09T09:09:37.168Z,18.73
2023-02-09T09:12:04.654Z,22.60
2023-02-09T09:14:32.084Z,21.98
2023-02-09T09:17:00.046Z,24.38
2023-02-09T09:19:29.147Z,24.00
2023-02-09T09:21:57.119Z,20.08
2023-02-09T09:24:28.134Z,16.02
2023-02-09T09:26:56.043Z,19.25
2023-02-09T09:29:23.997Z,13.68
2023-02-09T09:31:51.336Z,17.60
2023-02-09T09:34:18.611Z,15.32
2023-02-09T09:36:45.892Z,28.67
2023-02-09T09:39:13.188Z,19.85
2023-02-09T09:41:40.485Z,69.95
2023-02-09T09:44:29.041Z,15.48
2023-02-09T09:47:01.156Z,13.00
2023-02-09T09:49:31.465Z,10.88
2023-02-09T09:52:18.098Z,11.55
2023-02-09T09:54:45.955Z,12.57
2023-02-09T09:57:25.562Z,12.35
2023-02-09T09:59:54.609Z,10.57
2023-02-09T10:02:33.199Z,11.65
2023-02-09T10:05:18.626Z,12.88
2023-02-09T10:07:59.606Z,9.40
2023-02-09T10:10:56.292Z,7.50
2023-02-09T10:13:27.070Z,8.60
2023-02-09T10:15:56.596Z,8.73
2023-02-09T10:18:27.325Z,11.35
2023-02-09T10:21:10.780Z,10.23
2023-02-09T10:23:47.761Z,15.65
2023-02-09T10:26:26.717Z,8.52
2023-02-09T10:28:57.098Z,10.18
2023-02-09T10:31:36.322Z,11.90
2023-02-09T10:34:09.738Z,10.45
2023-02-09T10:36:45.832Z,10.13
2023-02-09T10:39:18.464Z,11.95
2023-02-09T10:41:49.000Z,13.80
2023-02-09T10:44:35.498Z,11.48
2023-02-09T10:47:14.972Z,16.25
2023-02-09T10:49:42.223Z,11.63
2023-02-09T10:52:19.634Z,12.43
2023-02-09T10:54:52.395Z,10.63
2023-02-09T10:57:31.481Z,11.05
2023-02-09T11:00:00.968Z,9.25
2023-02-09T11:02:37.219Z,9.43
2023-02-09T11:05:32.344Z,7.57
2023-02-09T11:08:12.639Z,20.73
2023-02-09T11:10:58.907Z,21.73
2023-02-09T11:13:27.940Z,13.52
2023-02-09T11:16:01.740Z,11.32
2023-02-09T11:18:34.323Z,14.90
2023-02-09T11:21:24.316Z,17.20
2023-02-09T11:23:57.778Z,10.15
2023-02-09T11:27:01.007Z,11.57
2023-02-09T11:29:43.401Z,14.60
2023-02-09T11:32:29.109Z,11.80
2023-02-09T11:35:11.723Z,11.10
2023-02-09T11:38:03.277Z,10.77
2023-02-09T11:40:45.053Z,11.95
2023-02-09T11:43:35.607Z,12.65
2023-02-09T11:46:14.748Z,13.15
2023-02-09T11:48:48.277Z,10.25
2023-02-09T11:51:17.402Z,11.82
2023-02-09T11:54:09.057Z,9.75
2023-02-09T11:56:42.071Z,9.95
2023-02-09T11:59:14.114Z,8.88
2023-02-09T12:02:04.442Z,8.27
2023-02-09T12:04:48.828Z,11.48
2023-02-09T12:07:26.905Z,8.95
2023-02-09T12:10:13.868Z,8.02
2023-02-09T12:12:49.881Z,9.23
2023-02-09T12:15:40.769Z,9.68
2023-02-09T12:18:14.901Z,12.27
2023-02-09T12:20:46.442Z,8.90
2023-02-09T12:23:25.253Z,9.10
2023-02-09T12:26:11.105Z,8.13
2023-02-09T12:28:43.891Z,8.30
2023-02-09T12:31:23.779Z,7.35
2023-02-09T12:34:00.011Z,9.88
2023-02-09T12:36:32.694Z,13.25
2023-02-09T12:39:07.442Z,10.63
2023-02-09T12:41:34.644Z,11.27
2023-02-09T12:44:10.987Z,9.65
2023-02-09T12:46:44.316Z,8.77
2023-02-09T12:49:14.448Z,8.05
2023-02-09T12:51:44.459Z,9.73
2023-02-09T12:54:38.624Z,8.75
2023-02-09T12:57:18.824Z,8.48
2023-02-09T12:59:52.876Z,7.75
2023-02-09T13:02:46.349Z,9.60
2023-02-09T13:05:17.386Z,9.55
2023-02-09T13:07:44.579Z,10.38
2023-02-09T13:10:39.764Z,8.48
2023-02-09T13:13:12.590Z,7.18
2023-02-09T13:16:10.075Z,7.53
2023-02-09T13:19:07.299Z,9.93
2023-02-09T13:22:21.726Z,11.73
2023-02-09T13:24:59.660Z,9.05
2023-02-09T13:27:28.372Z,12.82
2023-02-09T13:29:58.044Z,11.10
2023-02-09T13:32:34.086Z,11.25
2023-02-09T13:35:15.467Z,11.20
2023-02-09T13:37:52.566Z,12.73
2023-02-09T13:40:31.404Z,14.25
2023-02-09T13:43:10.633Z,15.15
2023-02-09T13:45:49.495Z,10.05
2023-02-09T13:48:27.920Z,10.02
2023-02-09T13:50:58.026Z,9.60
2023-02-09T13:53:27.272Z,10.25
2023-02-09T13:55:57.274Z,11.57
2023-02-09T13:58:36.575Z,9.32
2023-02-09T14:01:07.770Z,10.38
2023-02-09T14:03:58.253Z,9.00
2023-02-09T14:06:40.468Z,9.65
2023-02-09T14:09:16.394Z,10.63
2023-02-09T14:11:55.162Z,12.30
2023-02-09T14:14:24.846Z,9.30
2023-02-09T14:17:25.786Z,11.82
2023-02-09T14:19:55.142Z,9.93
2023-02-09T14:22:37.329Z,11.50
2023-02-09T14:25:13.666Z,11.25
2023-02-09T14:27:45.564Z,13.10
2023-02-09T14:30:20.390Z,10.63
2023-02-09T14:32:54.016Z,14.00
2023-02-09T14:35:30.320Z,10.77
2023-02-09T14:38:00.283Z,12.48
2023-02-09T14:40:27.852Z,10.02
2023-02-09T14:43:25.068Z,9.63
2023-02-09T14:46:01.633Z,8.43
2023-02-09T14:48:31.180Z,10.75
2023-02-09T14:51:10.786Z,9.38
2023-02-09T14:53:40.157Z,11.45
2023-02-09T14:56:19.478Z,10.10
2023-02-09T14:58:46.685Z,9.93
2023-02-09T15:01:14.301Z,11.27
2023-02-09T15:03:41.641Z,15.07
2023-02-09T15:06:11.841Z,11.00
2023-02-09T15:08:39.493Z,12.73
2023-02-09T15:11:29.461Z,13.48
2023-02-09T15:14:06.476Z,14.65
2023-02-09T15:16:33.841Z,8.38
2023-02-09T15:19:03.902Z,11.55
2023-02-09T15:21:31.537Z,10.00
2023-02-09T15:23:59.127Z,7.85
2023-02-09T15:26:27.774Z,9.55
2023-02-09T15:28:55.062Z,9.38
2023-02-09T15:31:22.408Z,12.00
2023-02-09T15:33:49.658Z,11.57
2023-02-09T15:36:20.528Z,9.13
2023-02-09T15:38:48.221Z,11.23
2023-02-09T15:41:36.085Z,9.60
2023-02-09T15:44:37.024Z,32.97
2023-02-09T15:47:24.053Z,9.20
2023-02-09T15:49:51.427Z,9.32
2023-02-09T15:52:19.334Z,9.98
2023-02-09T15:54:47.835Z,8.43
2023-02-09T15:57:16.782Z,8.93
2023-02-09T15:59:46.065Z,7.82
2023-02-09T16:02:15.043Z,10.43
2023-02-09T16:04:42.928Z,12.32
2023-02-09T16:07:14.760Z,63.80
2023-02-09T16:09:43.794Z,10.82
2023-02-09T16:12:14.191Z,13.00
2023-02-09T16:14:41.464Z,11.55
2023-02-09T16:17:08.814Z,24.63
2023-02-09T16:19:36.126Z,17.60
2023-02-09T16:22:06.799Z,16.42
2023-02-09T16:24:45.412Z,16.05
2023-02-09T16:27:21.790Z,13.98
2023-02-09T16:29:49.314Z,18.25
2023-02-09T16:32:19.036Z,14.65
2023-02-09T16:34:46.650Z,12.93
2023-02-09T16:37:19.907Z,16.45
2023-02-09T16:39:47.180Z,14.10
2023-02-09T16:42:15.848Z,17.90
2023-02-09T16:44:43.312Z,13.70
2023-02-09T16:47:23.496Z,10.30
2023-02-09T16:49:57.681Z,16.30
2023-02-09T16:52:26.127Z,12.43
2023-02-09T16:54:55.987Z,15.82
2023-02-09T16:57:24.432Z,12.80
2023-02-09T16:59:53.052Z,13.02
2023-02-09T17:02:34.320Z,15.20
2023-02-09T17:05:08.045Z,12.43
2023-02-09T17:07:45.604Z,27.07
2023-02-09T17:10:23.633Z,27.08
2023-02-09T17:12:53.237Z,27.60
2023-02-09T17:15:30.098Z,41.60
2023-02-09T17:18:04.738Z,30.05
2023-02-09T17:20:37.744Z,36.92
2023-02-09T17:23:05.176Z,32.40
2023-02-09T17:25:32.623Z,38.83
2023-02-09T17:28:00.050Z,33.70
2023-02-09T17:30:27.467Z,34.88
2023-02-09T17:33:01.210Z,38.17
2023-02-09T17:36:10.234Z,33.17
2023-02-09T17:38:22.719Z,33.22
2023-02-09T17:40:52.161Z,28.23
2023-02-09T17:43:20.770Z,30.15
2023-02-09T17:45:50.866Z,29.90
2023-02-09T17:48:22.428Z,25.67
2023-02-09T17:50:52.750Z,25.98
2023-02-09T17:53:23.762Z,26.45
2023-02-09T17:55:52.322Z,26.13
2023-02-09T17:58:20.272Z,32.45
2023-02-09T18:00:47.932Z,27.25
2023-02-09T18:03:18.441Z,23.65
2023-02-09T18:05:54.403Z,31.05
2023-02-09T18:08:21.924Z,30.15
2023-02-09T18:10:49.344Z,28.40
2023-02-09T18:13:18.713Z,26.27
2023-02-09T18:15:48.677Z,23.60
2023-02-09T18:18:16.315Z,22.35
2023-02-09T18:20:43.677Z,24.20
2023-02-09T18:23:15.323Z,21.45
2023-02-09T18:25:43.158Z,17.08
2023-02-09T18:28:10.494Z,17.33
2023-02-09T18:30:39.512Z,22.55
2023-02-09T18:33:07.800Z,16.48
2023-02-09T18:35:39.283Z,15.65
2023-02-09T18:38:08.751Z,18.05
2023-02-09T18:40:37.165Z,15.55
2023-02-09T18:43:06.585Z,17.15
2023-02-09T18:45:34.388Z,14.88
2023-02-09T18:48:02.158Z,15.25
2023-02-09T18:50:31.710Z,16.33
2023-02-09T18:53:01.154Z,17.77
2023-02-09T18:55:31.022Z,16.77
2023-02-09T18:58:00.480Z,14.77
2023-02-09T19:00:28.772Z,12.48
2023-02-09T19:03:00.434Z,15.23
2023-02-09T19:05:30.513Z,13.95
2023-02-09T19:07:59.543Z,16.73
2023-02-09T19:10:27.613Z,13.77
2023-02-09T19:12:55.449Z,14.20
2023-02-09T19:15:25.667Z,12.25
2023-02-09T19:17:55.102Z,14.98
2023-02-09T19:20:28.969Z,12.88
2023-02-09T19:22:56.754Z,10.93
2023-02-09T19:25:26.310Z,12.00
2023-02-09T19:27:54.664Z,12.77
2023-02-09T19:30:28.646Z,12.27
2023-02-09T19:33:01.952Z,13.57
2023-02-09T19:35:29.437Z,11.20
2023-02-09T19:37:57.861Z,10.90
2023-02-09T19:40:36.799Z,13.27
2023-02-09T19:43:05.908Z,11.40
2023-02-09T19:45:37.327Z,13.30
2023-02-09T19:48:06.568Z,13.13
2023-02-09T19:50:34.574Z,12.93
2023-02-09T19:53:02.856Z,12.48
2023-02-09T19:55:30.313Z,12.93
2023-02-09T19:57:57.716Z,14.32
2023-02-09T20:00:25.122Z,11.25
2023-02-09T20:02:52.526Z,11.50
2023-02-09T20:05:19.849Z,11.43
2023-02-09T20:07:48.793Z,14.57
2023-02-09T20:10:16.112Z,12.07
2023-02-09T20:15:15.831Z,12.68
2023-02-09T20:17:44.313Z,10.25
2023-02-09T20:20:12.510Z,13.05
2023-02-09T20:22:39.807Z,12.32
2023-02-09T20:25:07.604Z,11.90
2023-02-09T20:27:34.832Z,11.23
2023-02-09T20:30:07.327Z,11.35
2023-02-09T20:32:38.226Z,12.75
2023-02-09T20:35:06.492Z,12.93
2023-02-09T20:37:33.816Z,11.52
2023-02-09T20:40:01.661Z,11.70
2023-02-09T20:42:47.790Z,11.80
2023-02-09T20:45:36.031Z,12.00
2023-02-09T20:48:04.490Z,11.82
2023-02-09T20:50:33.271Z,12.10
2023-02-09T20:53:03.573Z,13.02
2023-02-09T20:55:31.046Z,13.40
2023-02-09T20:57:58.348Z,11.68
2023-02-09T21:00:25.686Z,14.52
2023-02-09T21:02:53.028Z,13.32
2023-02-09T21:05:20.370Z,13.82
2023-02-09T21:07:50.423Z,14.23
2023-02-09T21:10:17.872Z,12.07
2023-02-09T21:12:46.544Z,13.15
2023-02-09T21:15:14.139Z,13.38
2023-02-09T21:17:47.485Z,13.30
2023-02-09T21:20:18.308Z,13.82
2023-02-09T21:22:45.814Z,12.43
2023-02-09T21:25:13.850Z,11.93
2023-02-09T21:27:41.135Z,13.43
2023-02-09T21:30:08.821Z,12.65
2023-02-09T21:32:38.322Z,11.95
2023-02-09T21:35:10.280Z,12.85
2023-02-09T21:37:38.897Z,11.75
2023-02-09T21:40:07.148Z,12.38
2023-02-09T21:42:36.809Z,13.40
2023-02-09T21:45:04.615Z,12.75
2023-02-09T21:47:37.283Z,12.80
2023-02-09T21:50:06.165Z,13.57
2023-02-09T21:52:34.666Z,12.77
2023-02-09T21:55:02.429Z,13.82
2023-02-09T21:57:29.784Z,12.48
2023-02-09T21:59:59.078Z,11.95
2023-02-09T22:02:27.458Z,13.13
2023-02-09T22:04:54.808Z,12.15
2023-02-09T22:07:22.122Z,12.70
2023-02-09T22:09:49.498Z,12.68
2023-02-09T22:12:16.736Z,11.88
2023-02-09T22:14:43.998Z,12.00
2023-02-09T22:17:11.329Z,15.55
2023-02-09T22:19:38.698Z,14.70
2023-02-09T22:22:06.005Z,25.63
2023-02-09T22:24:34.815Z,21.30
2023-02-09T22:27:03.476Z,27.70
2023-02-09T22:29:33.252Z,28.08
2023-02-09T22:32:00.509Z,24.42
2023-02-09T22:34:27.753Z,34.80
2023-02-09T22:36:55.000Z,27.60
2023-02-09T22:39:22.653Z,42.78
2023-02-09T22:41:49.973Z,37.65
2023-02-09T22:44:18.184Z,33.33
2023-02-09T22:46:46.464Z,32.97
2023-02-09T22:49:18.302Z,62.45
2023-02-09T22:51:47.622Z,53.90
2023-02-09T22:54:16.327Z,47.28
2023-02-09T22:56:43.977Z,49.90
2023-02-09T22:59:13.373Z,29.48
2023-02-09T23:01:41.149Z,28.70
2023-02-09T23:04:08.485Z,43.90
2023-02-09T23:06:35.819Z,35.40
2023-02-09T23:09:07.374Z,25.05
2023-02-09T23:11:35.996Z,32.95
2023-02-09T23:14:09.529Z,26.20
2023-02-09T23:16:37.881Z,29.98
2023-02-09T23:19:08.476Z,34.25
2023-02-09T23:21:38.419Z,18.23
2023-02-09T23:24:06.172Z,28.52
2023-02-09T23:26:33.897Z,20.85
2023-02-09T23:29:03.905Z,22.15
2023-02-09T23:31:31.726Z,15.18
2023-02-09T23:33:59.422Z,24.50
2023-02-09T23:36:30.040Z,25.77
2023-02-09T23:39:00.802Z,11.95
2023-02-09T23:41:28.608Z,15.48
2023-02-09T23:43:56.439Z,11.63
2023-02-09T23:46:28.323Z,19.30
2023-02-09T23:48:56.677Z,13.05
2023-02-09T23:51:33.224Z,14.77
2023-02-09T23:54:03.755Z,12.98
2023-02-09T23:56:36.721Z,13.10
2023-02-09T23:59:11.736Z,13.25
